Time;durP1;ratioP1;P1;durP2;ratioP2;P2;SDS_P1;SDS_P2;PMS_P1;PMS_P2;Temp;Humidity;BMP_temperature;BMP_pressure;BME280_temperature;BME280_humidity;BME280_pressure;Samples;Min_cycle;Max_cycle;Signal;HPM_P1;HPM_P2
2023/06/02 00:02:57;;;;;;;6.07;5.47;;;16.30;75.30;;;;;;6315655;28;20188;-56
2023/06/02 00:06:03;;;;;;;7.83;5.63;;;16.20;75.40;;;;;;6331996;27;20260;-56
2023/06/02 00:09:04;;;;;;;6.33;5.70;;;16.20;75.30;;;;;;6342603;27;20175;-57
2023/06/02 00:12:06;;;;;;;7.07;5.60;;;16.20;75.70;;;;;;6342601;27;20213;-56
2023/06/02 00:15:07;;;;;;;6.10;5.17;;;16.10;75.70;;;;;;6326678;27;20203;-56
2023/06/02 00:18:08;;;;;;;6.17;5.57;;;16.00;75.70;;;;;;6309531;27;20243;-55
2023/06/02 00:21:09;;;;;;;6.07;5.47;;;16.00;76.10;;;;;;6301986;27;20184;-55
2023/06/02 00:24:10;;;;;;;5.47;4.90;;;16.00;76.10;;;;;;6341851;27;20190;-56
2023/06/02 00:27:10;;;;;;;6.93;5.47;;;16.00;76.00;;;;;;6321681;27;20180;-56
2023/06/02 00:30:12;;;;;;;6.93;5.10;;;15.90;76.00;;;;;;6334698;27;20248;-56
2023/06/02 00:33:12;;;;;;;6.00;5.50;;;15.80;75.90;;;;;;6333088;27;20288;-57
2023/06/02 00:36:14;;;;;;;5.73;5.23;;;15.80;76.10;;;;;;6310611;27;20183;-56
2023/06/02 00:39:15;;;;;;;7.47;5.50;;;15.80;76.10;;;;;;6329530;27;20265;-56
2023/06/02 00:42:17;;;;;;;6.27;5.67;;;15.80;76.10;;;;;;6319348;28;20195;-54
2023/06/02 00:45:18;;;;;;;6.13;5.37;;;15.80;76.40;;;;;;6333699;28;20230;-54
2023/06/02 00:48:19;;;;;;;6.00;5.40;;;15.70;76.60;;;;;;6317050;27;20247;-55
2023/06/02 00:51:20;;;;;;;5.73;5.00;;;15.60;76.50;;;;;;6310136;27;20193;-54
2023/06/02 00:54:20;;;;;;;7.70;5.73;;;15.60;76.50;;;;;;6321511;27;20202;-54
2023/06/02 00:57:21;;;;;;;7.13;5.47;;;15.60;76.80;;;;;;6310461;27;20215;-55
2023/06/02 01:00:23;;;;;;;5.57;5.07;;;15.60;76.80;;;;;;6324459;27;20234;-54
2023/06/02 01:03:26;;;;;;;8.53;6.23;;;15.60;76.90;;;;;;6329742;27;20178;-56
2023/06/02 01:06:34;;;;;;;7.43;5.57;;;15.50;77.20;;;;;;6309727;27;20196;-53
2023/06/02 01:09:36;;;;;;;6.53;5.97;;;15.50;77.10;;;;;;6339811;27;20230;-56
2023/06/02 01:12:36;;;;;;;6.03;5.43;;;15.50;77.20;;;;;;6322061;27;20198;-55
2023/06/02 01:15:37;;;;;;;8.30;5.40;;;15.40;77.50;;;;;;6319888;27;20182;-55
2023/06/02 01:18:42;;;;;;;6.17;5.57;;;15.40;77.10;;;;;;6318351;27;20211;-53
2023/06/02 01:21:57;;;;;;;6.50;5.67;;;15.30;77.10;;;;;;6348232;27;20211;-56
2023/06/02 01:25:00;;;;;;;7.00;5.60;;;15.30;77.50;;;;;;6344608;27;20177;-53
2023/06/02 01:28:02;;;;;;;6.10;5.50;;;15.30;77.80;;;;;;6329389;27;20192;-54
2023/06/02 01:31:27;;;;;;;6.43;5.33;;;15.30;77.70;;;;;;6309085;27;20239;-55
2023/06/02 01:34:53;;;;;;;6.20;5.60;;;15.20;77.40;;;;;;6342073;27;20192;-56
2023/06/02 01:37:58;;;;;;;7.23;5.33;;;15.30;77.50;;;;;;6342321;27;20191;-57
2023/06/02 01:41:03;;;;;;;6.00;5.43;;;15.20;77.10;;;;;;6356008;27;20198;-56
2023/06/02 01:44:04;;;;;;;8.10;5.10;;;15.20;77.10;;;;;;6342304;27;20191;-56
2023/06/02 01:47:05;;;;;;;6.10;5.50;;;15.20;77.30;;;;;;6309193;28;20210;-53
2023/06/02 01:50:06;;;;;;;6.43;5.27;;;15.10;77.40;;;;;;6311709;27;20226;-55
2023/06/02 01:53:06;;;;;;;6.50;5.90;;;15.00;77.80;;;;;;6322546;27;20219;-55
2023/06/02 01:56:07;;;;;;;7.43;5.87;;;15.00;78.00;;;;;;6307305;27;20224;-55
2023/06/02 01:59:08;;;;;;;5.87;5.30;;;15.00;78.00;;;;;;6311185;27;20184;-56
2023/06/02 02:02:08;;;;;;;6.50;5.90;;;15.00;78.00;;;;;;6319195;27;20215;-56
2023/06/02 02:05:10;;;;;;;7.30;5.43;;;15.00;78.20;;;;;;6309378;27;20197;-55
2023/06/02 02:08:12;;;;;;;7.00;6.10;;;15.00;78.40;;;;;;6317073;27;20207;-56
2023/06/02 02:11:12;;;;;;;9.00;5.83;;;15.00;78.40;;;;;;6329601;27;20182;-55
2023/06/02 02:14:13;;;;;;;6.57;5.47;;;15.00;78.20;;;;;;6327719;27;20195;-56
2023/06/02 02:17:14;;;;;;;7.73;5.83;;;14.90;78.40;;;;;;6325750;27;20192;-56
2023/06/02 02:20:17;;;;;;;6.70;6.00;;;14.90;78.40;;;;;;6323306;27;20214;-56
2023/06/02 02:23:17;;;;;;;6.40;5.80;;;14.80;78.50;;;;;;6320549;27;20209;-55
2023/06/02 02:26:18;;;;;;;6.50;5.90;;;14.80;78.50;;;;;;6332540;27;20220;-56
2023/06/02 02:29:19;;;;;;;6.93;5.77;;;14.80;78.70;;;;;;6339979;27;20226;-56
2023/06/02 02:32:20;;;;;;;10.53;6.03;;;14.70;78.70;;;;;;6310855;28;20186;-56
2023/06/02 02:35:20;;;;;;;7.33;5.70;;;14.70;78.60;;;;;;6313135;27;20187;-56
2023/06/02 02:38:21;;;;;;;6.97;5.30;;;14.70;78.50;;;;;;6337930;27;20191;-56
2023/06/02 02:41:22;;;;;;;5.67;4.90;;;14.70;78.40;;;;;;6341292;27;20278;-55
2023/06/02 02:44:23;;;;;;;7.27;5.07;;;14.70;78.70;;;;;;6320665;27;20191;-55
2023/06/02 02:47:23;;;;;;;6.07;5.37;;;14.60;79.30;;;;;;6313718;27;20186;-55
2023/06/02 02:50:25;;;;;;;7.03;5.77;;;14.60;79.10;;;;;;6321453;28;20222;-55
2023/06/02 02:53:31;;;;;;;7.17;5.03;;;14.60;79.00;;;;;;6313458;28;20189;-55
2023/06/02 02:56:32;;;;;;;6.80;5.40;;;14.60;79.20;;;;;;6315742;27;20196;-55
2023/06/02 02:59:33;;;;;;;6.87;5.23;;;14.60;78.90;;;;;;6303876;27;20196;-54
2023/06/02 03:02:34;;;;;;;6.87;5.27;;;14.60;78.80;;;;;;6319313;27;20287;-55
2023/06/02 03:05:37;;;;;;;6.30;5.63;;;14.60;78.70;;;;;;6343119;27;20190;-55
2023/06/02 03:08:38;;;;;;;8.30;5.73;;;14.60;78.40;;;;;;6317158;27;20216;-56
2023/06/02 03:11:39;;;;;;;7.17;6.13;;;14.60;78.40;;;;;;6313376;27;20192;-56
2023/06/02 03:14:40;;;;;;;7.10;6.20;;;14.60;78.60;;;;;;6333893;28;20214;-55
2023/06/02 03:17:41;;;;;;;8.60;6.03;;;14.60;78.80;;;;;;6313707;27;20190;-54
2023/06/02 03:20:42;;;;;;;6.33;5.07;;;14.60;78.70;;;;;;6316001;28;20198;-57
2023/06/02 03:23:43;;;;;;;7.17;5.70;;;14.60;78.80;;;;;;6318666;28;20269;-56
2023/06/02 03:26:44;;;;;;;9.33;7.27;;;14.60;78.90;;;;;;6317656;28;20204;-57
2023/06/02 03:29:45;;;;;;;8.83;7.10;;;14.60;78.60;;;;;;6328684;27;20238;-56
2023/06/02 03:32:46;;;;;;;10.30;7.23;;;14.70;78.70;;;;;;6316212;27;20192;-58
2023/06/02 03:35:46;;;;;;;7.50;6.70;;;14.70;78.40;;;;;;6318227;27;20193;-55
2023/06/02 03:38:47;;;;;;;8.33;6.73;;;14.70;78.80;;;;;;6322946;28;20187;-57
2023/06/02 03:41:48;;;;;;;9.53;6.73;;;14.60;78.70;;;;;;6328566;28;20188;-55
2023/06/02 03:44:48;;;;;;;10.03;6.53;;;14.70;78.70;;;;;;6312152;28;20195;-57
2023/06/02 03:47:49;;;;;;;8.07;6.60;;;14.60;79.00;;;;;;6303152;28;20196;-57
2023/06/02 03:50:50;;;;;;;9.03;7.67;;;14.70;78.80;;;;;;6309176;28;20251;-57
2023/06/02 03:53:51;;;;;;;8.60;7.20;;;14.70;79.00;;;;;;6309516;27;20192;-57
2023/06/02 03:56:51;;;;;;;10.80;7.13;;;14.70;79.40;;;;;;6327334;27;20197;-57
2023/06/02 03:59:52;;;;;;;9.33;7.50;;;14.60;79.10;;;;;;6312339;27;20264;-56
2023/06/02 04:02:53;;;;;;;11.13;6.90;;;14.60;79.00;;;;;;6303574;28;20212;-57
2023/06/02 04:05:53;;;;;;;12.60;8.03;;;14.70;79.60;;;;;;6331726;28;20198;-57
2023/06/02 04:08:54;;;;;;;10.03;7.80;;;14.70;79.40;;;;;;6317012;27;20302;-53
2023/06/02 04:11:55;;;;;;;8.67;7.70;;;14.70;79.20;;;;;;6315302;27;20184;-57
2023/06/02 04:14:57;;;;;;;8.97;7.83;;;14.70;79.30;;;;;;6317673;27;20185;-58
2023/06/02 04:17:58;;;;;;;8.63;7.23;;;14.80;79.00;;;;;;6308631;27;20185;-59
2023/06/02 04:20:59;;;;;;;11.30;8.03;;;14.80;79.10;;;;;;6306416;27;20195;-57
2023/06/02 04:23:59;;;;;;;9.47;7.80;;;14.80;79.50;;;;;;6335146;27;20192;-57
2023/06/02 04:27:00;;;;;;;9.87;8.20;;;14.80;79.10;;;;;;6302226;27;20189;-54
2023/06/02 04:30:01;;;;;;;9.07;7.80;;;14.90;78.90;;;;;;6316233;27;20243;-51
2023/06/02 04:33:02;;;;;;;10.53;8.43;;;14.90;78.80;;;;;;6312500;28;20216;-52
2023/06/02 04:36:03;;;;;;;10.30;8.77;;;14.80;79.70;;;;;;6321569;28;20185;-52
2023/06/02 04:39:07;;;;;;;10.70;8.53;;;14.90;79.60;;;;;;6311435;27;20195;-52
2023/06/02 04:42:07;;;;;;;11.03;8.47;;;14.90;79.30;;;;;;6338417;27;20187;-52
2023/06/02 04:45:13;;;;;;;10.87;8.20;;;14.90;79.60;;;;;;6317067;27;20222;-55
2023/06/02 04:48:14;;;;;;;9.10;8.23;;;14.90;79.50;;;;;;6324906;27;20208;-55
2023/06/02 04:51:14;;;;;;;10.73;8.17;;;15.00;80.00;;;;;;6316294;27;20182;-54
2023/06/02 04:54:15;;;;;;;10.13;8.53;;;15.00;79.60;;;;;;6339654;27;20219;-55
2023/06/02 04:57:16;;;;;;;10.33;8.83;;;15.00;79.70;;;;;;6316995;27;20184;-56
2023/06/02 05:00:17;;;;;;;11.43;8.60;;;15.00;79.80;;;;;;6301646;27;20189;-57
2023/06/02 05:03:17;;;;;;;11.67;9.20;;;15.10;79.70;;;;;;6310146;27;20196;-57
2023/06/02 05:06:18;;;;;;;14.03;8.73;;;15.20;79.50;;;;;;6317552;27;20195;-57
2023/06/02 05:09:19;;;;;;;16.20;8.73;;;15.20;79.20;;;;;;6309300;27;20209;-56
2023/06/02 05:12:20;;;;;;;12.30;9.07;;;15.30;79.60;;;;;;6347840;27;20190;-57
2023/06/02 05:15:21;;;;;;;11.70;8.60;;;15.30;79.10;;;;;;6346202;27;20180;-56
2023/06/02 05:18:22;;;;;;;11.57;8.83;;;15.40;79.20;;;;;;6299945;27;20270;-55
2023/06/02 05:21:22;;;;;;;9.37;8.13;;;15.40;79.10;;;;;;6326122;27;20266;-56
2023/06/02 05:24:23;;;;;;;11.93;9.20;;;15.40;79.10;;;;;;6311092;27;20192;-56
2023/06/02 05:27:24;;;;;;;12.33;8.90;;;15.50;79.30;;;;;;6319306;27;20188;-55
2023/06/02 05:30:25;;;;;;;11.77;9.23;;;15.50;79.30;;;;;;6313751;27;20239;-56
2023/06/02 05:33:25;;;;;;;11.57;8.90;;;15.60;79.20;;;;;;6305041;28;20207;-56
2023/06/02 05:36:26;;;;;;;14.43;9.33;;;15.60;79.40;;;;;;6304220;28;20196;-55
2023/06/02 05:39:27;;;;;;;10.03;8.93;;;15.80;78.50;;;;;;6327658;27;20180;-55
2023/06/02 05:42:28;;;;;;;10.93;9.10;;;15.80;79.00;;;;;;6347596;27;20283;-54
2023/06/02 05:45:28;;;;;;;11.73;8.83;;;15.90;78.90;;;;;;6325280;27;20194;-54
2023/06/02 05:48:31;;;;;;;13.23;9.93;;;16.00;78.60;;;;;;6310766;28;20235;-54
2023/06/02 05:51:31;;;;;;;10.97;9.07;;;16.00;76.30;;;;;;6290335;28;20204;-55
2023/06/02 05:54:32;;;;;;;10.90;8.77;;;16.10;76.40;;;;;;6319086;27;20191;-56
2023/06/02 05:57:33;;;;;;;12.47;9.27;;;16.10;77.00;;;;;;6314601;27;20192;-52
2023/06/02 06:00:33;;;;;;;11.33;9.07;;;16.10;78.30;;;;;;6307462;28;20241;-55
2023/06/02 06:03:35;;;;;;;15.13;9.10;;;16.20;78.40;;;;;;6310414;28;20201;-54
2023/06/02 06:06:36;;;;;;;11.43;9.03;;;16.20;78.50;;;;;;6325390;27;20188;-53
2023/06/02 06:09:36;;;;;;;11.33;8.90;;;16.20;78.40;;;;;;6310663;28;20222;-53
2023/06/02 06:12:37;;;;;;;10.10;8.50;;;16.20;78.70;;;;;;6300327;28;20188;-53
2023/06/02 06:15:38;;;;;;;12.77;9.33;;;16.20;77.90;;;;;;6319887;27;20220;-56
2023/06/02 06:18:39;;;;;;;13.80;9.80;;;16.20;77.80;;;;;;6307535;28;20188;-52
2023/06/02 06:21:40;;;;;;;10.07;8.93;;;16.20;77.20;;;;;;6301061;28;20198;-53
2023/06/02 06:24:40;;;;;;;12.90;9.47;;;16.30;77.60;;;;;;6310376;28;20226;-53
2023/06/02 06:27:41;;;;;;;9.90;8.90;;;16.40;77.80;;;;;;6314919;28;20202;-53
2023/06/02 06:30:42;;;;;;;12.87;8.67;;;16.40;77.90;;;;;;6326644;27;20241;-55
2023/06/02 06:33:42;;;;;;;12.10;10.07;;;16.40;78.00;;;;;;6302827;27;20188;-53
2023/06/02 06:36:45;;;;;;;12.73;9.33;;;16.40;77.50;;;;;;6302314;28;20194;-54
2023/06/02 06:39:46;;;;;;;11.13;9.43;;;16.40;77.50;;;;;;6336310;27;20186;-54
2023/06/02 06:42:47;;;;;;;10.63;9.53;;;16.50;77.50;;;;;;6322351;28;20195;-55
2023/06/02 06:45:47;;;;;;;10.53;9.40;;;16.50;77.00;;;;;;6310643;28;20222;-55
2023/06/02 06:48:48;;;;;;;13.97;9.47;;;16.60;76.10;;;;;;6306713;28;20261;-55
2023/06/02 06:51:49;;;;;;;11.93;9.97;;;16.70;76.10;;;;;;6312490;28;20268;-56
2023/06/02 06:54:50;;;;;;;11.87;9.87;;;16.70;76.20;;;;;;6305322;28;20188;-54
2023/06/02 06:57:50;;;;;;;11.20;9.20;;;16.80;76.30;;;;;;6340395;27;20192;-55
2023/06/02 07:00:51;;;;;;;11.70;9.47;;;16.80;76.50;;;;;;6298027;28;20192;-55
2023/06/02 07:03:52;;;;;;;12.80;9.93;;;16.80;75.40;;;;;;6304326;28;20195;-53
2023/06/02 07:06:52;;;;;;;12.70;9.70;;;17.00;74.50;;;;;;6333672;27;20193;-56
2023/06/02 07:09:53;;;;;;;13.77;9.43;;;17.00;73.70;;;;;;6307373;28;20303;-53
2023/06/02 07:12:54;;;;;;;12.10;9.20;;;17.20;72.80;;;;;;6303467;28;20184;-56
2023/06/02 07:15:55;;;;;;;10.63;9.13;;;17.20;72.40;;;;;;6316642;28;20226;-54
2023/06/02 07:18:55;;;;;;;11.60;9.27;;;17.40;72.00;;;;;;6317507;28;20246;-53
2023/06/02 07:21:56;;;;;;;11.80;9.67;;;17.50;71.60;;;;;;6337866;28;20188;-53
2023/06/02 07:24:57;;;;;;;12.33;9.33;;;17.60;71.20;;;;;;6319542;28;20185;-55
2023/06/02 07:27:58;;;;;;;11.10;9.20;;;17.80;71.20;;;;;;6305965;28;20191;-54
2023/06/02 07:30:58;;;;;;;11.03;9.00;;;17.90;70.90;;;;;;6329273;28;20236;-55
2023/06/02 07:33:59;;;;;;;9.83;8.37;;;18.00;70.30;;;;;;6318785;28;20220;-51
2023/06/02 07:37:02;;;;;;;11.17;9.07;;;18.10;70.70;;;;;;6311261;28;20200;-54
2023/06/02 07:40:03;;;;;;;10.23;9.00;;;18.10;69.90;;;;;;6346815;28;20185;-54
2023/06/02 07:43:04;;;;;;;10.87;8.70;;;18.40;69.50;;;;;;6312432;28;20195;-52
2023/06/02 07:46:05;;;;;;;9.73;8.10;;;18.50;69.90;;;;;;6318685;28;20196;-54
2023/06/02 07:49:05;;;;;;;9.63;8.70;;;18.60;68.70;;;;;;6330240;27;20210;-55
2023/06/02 07:52:06;;;;;;;9.40;8.50;;;18.60;68.80;;;;;;6312816;28;20181;-56
2023/06/02 07:55:07;;;;;;;10.17;9.17;;;18.70;69.20;;;;;;6309925;28;20192;-53
2023/06/02 07:58:08;;;;;;;11.10;8.67;;;18.70;69.50;;;;;;6295673;28;20193;-55
2023/06/02 08:01:09;;;;;;;10.90;8.80;;;18.80;68.90;;;;;;6316166;28;20239;-53
2023/06/02 08:04:09;;;;;;;9.20;8.30;;;18.90;68.30;;;;;;6295421;28;20234;-53
2023/06/02 08:07:10;;;;;;;10.13;8.87;;;19.00;68.50;;;;;;6318237;28;20189;-55
2023/06/02 08:10:12;;;;;;;9.30;8.40;;;19.00;68.10;;;;;;6314823;28;20202;-54
2023/06/02 08:13:12;;;;;;;8.83;7.93;;;19.20;66.90;;;;;;6314425;28;20192;-54
2023/06/02 08:16:13;;;;;;;9.47;8.43;;;19.30;67.70;;;;;;6327598;27;20188;-55
2023/06/02 08:19:14;;;;;;;9.90;8.30;;;19.30;67.70;;;;;;6329644;28;20189;-51
2023/06/02 08:22:15;;;;;;;10.03;7.50;;;19.50;65.70;;;;;;6295162;27;20180;-56
2023/06/02 08:25:16;;;;;;;9.73;8.50;;;19.50;66.20;;;;;;6341643;27;20179;-55
2023/06/02 08:28:24;;;;;;;9.70;8.40;;;19.70;65.70;;;;;;6328874;28;20181;-52
2023/06/02 08:31:25;;;;;;;9.00;8.10;;;19.90;64.70;;;;;;6291204;28;20229;-55
2023/06/02 08:34:27;;;;;;;8.43;7.60;;;20.00;64.50;;;;;;6328209;28;20180;-53
2023/06/02 08:37:29;;;;;;;8.47;7.60;;;20.00;64.60;;;;;;6310109;28;20272;-54
2023/06/02 08:40:38;;;;;;;8.70;7.87;;;20.20;64.50;;;;;;6317930;28;20196;-55
2023/06/02 08:43:39;;;;;;;8.93;7.80;;;20.20;64.60;;;;;;6322622;28;20192;-55
2023/06/02 08:46:41;;;;;;;9.30;7.63;;;20.10;65.10;;;;;;6324651;27;20320;-55
2023/06/02 08:49:43;;;;;;;8.67;7.87;;;20.10;66.70;;;;;;6327405;28;20227;-55
2023/06/02 08:52:47;;;;;;;6.87;6.20;;;20.10;65.90;;;;;;6339409;28;20181;-55
2023/06/02 08:55:48;;;;;;;7.03;6.40;;;20.20;65.60;;;;;;6313290;28;20187;-55
2023/06/02 08:58:49;;;;;;;11.03;6.70;;;20.30;64.20;;;;;;6298083;28;20206;-55
2023/06/02 09:01:50;;;;;;;7.13;6.13;;;20.30;63.50;;;;;;6297908;28;20190;-55
2023/06/02 09:04:51;;;;;;;6.33;5.73;;;20.40;63.20;;;;;;6319168;28;20200;-52
2023/06/02 09:08:08;;;;;;;6.80;6.10;;;20.50;62.50;;;;;;6319966;28;20449;-55
2023/06/02 09:11:16;;;;;;;6.30;5.70;;;20.60;63.40;;;;;;6323850;28;20188;-53
2023/06/02 09:14:19;;;;;;;6.33;5.73;;;20.70;63.70;;;;;;6307490;27;20208;-55
2023/06/02 09:17:28;;;;;;;6.80;6.10;;;20.70;64.00;;;;;;6313929;28;20180;-55
2023/06/02 09:20:31;;;;;;;6.80;6.20;;;20.80;64.80;;;;;;6349039;27;20184;-55
2023/06/02 09:23:45;;;;;;;7.20;5.97;;;20.90;64.70;;;;;;6322226;28;20203;-54
2023/06/02 09:26:51;;;;;;;6.37;5.70;;;21.10;58.50;;;;;;6322356;28;20219;-55
2023/06/02 09:30:02;;;;;;;6.40;5.80;;;21.20;58.60;;;;;;6312218;27;20228;-55
2023/06/02 09:33:14;;;;;;;6.60;6.00;;;21.30;61.20;;;;;;6326058;27;20244;-56
2023/06/02 09:36:31;;;;;;;6.93;5.40;;;;;;;;;;6322100;28;20181;-54
2023/06/02 09:39:33;;;;;;;5.83;5.33;;;24.00;50.00;;;;;;6314576;27;20195;-56
2023/06/02 09:42:43;;;;;;;5.90;5.23;;;;;;;;;;6328434;27;20192;-52
2023/06/02 09:45:47;;;;;;;8.03;6.53;;;24.00;50.00;;;;;;6341506;28;20189;-54
2023/06/02 09:48:55;;;;;;;6.80;6.10;;;22.20;60.40;;;;;;6329454;28;20205;-51
2023/06/02 09:52:11;;;;;;;7.43;6.20;;;22.30;60.70;;;;;;6339584;27;20191;-56
2023/06/02 09:55:11;;;;;;;6.27;5.67;;;22.50;59.10;;;;;;6314373;28;20181;-55
2023/06/02 09:58:12;;;;;;;6.47;5.77;;;22.60;57.70;;;;;;6304085;28;20192;-51
2023/06/02 10:01:15;;;;;;;6.30;5.70;;;22.60;58.90;;;;;;6325547;27;20237;-55
2023/06/02 10:04:15;;;;;;;6.30;5.70;;;22.70;59.20;;;;;;6334477;28;20263;-54
2023/06/02 10:07:29;;;;;;;6.63;5.83;;;22.70;59.70;;;;;;6321644;28;20185;-54
2023/06/02 10:10:33;;;;;;;7.20;6.10;;;22.80;58.40;;;;;;6322146;28;20208;-58
2023/06/02 10:13:57;;;;;;;10.13;5.57;;;22.80;59.40;;;;;;6335612;28;20257;-51
2023/06/02 10:17:20;;;;;;;6.73;5.37;;;22.90;58.60;;;;;;6345828;28;20181;-54
2023/06/02 10:20:50;;;;;;;6.67;5.50;;;23.00;59.30;;;;;;6321384;28;20218;-55
2023/06/02 10:24:18;;;;;;;6.70;5.70;;;23.10;58.40;;;;;;6298901;27;20193;-54
2023/06/02 10:27:40;;;;;;;5.83;5.20;;;23.20;56.80;;;;;;6325662;28;20188;-55
2023/06/02 10:30:41;;;;;;;7.87;4.97;;;23.50;58.40;;;;;;6325652;27;20273;-55
2023/06/02 10:33:49;;;;;;;6.90;4.60;;;23.70;57.80;;;;;;6314017;28;20185;-57
2023/06/02 10:37:10;;;;;;;5.60;5.10;;;;;;;;;;6307585;28;20196;-56
2023/06/02 10:40:11;;;;;;;6.90;5.53;;;;;;;;;;6333862;28;20189;-55
2023/06/02 10:43:13;;;;;;;6.30;5.73;;;;;;;;;;6338174;28;20228;-55
2023/06/02 10:46:18;;;;;;;7.23;4.90;;;;;;;;;;6339439;28;20183;-55
2023/06/02 10:53:01;;;;;;;6.93;5.47;;;;;;;;;;6324837;27;20350;-54
2023/06/02 10:56:28;;;;;;;5.07;4.63;;;;;;;;;;6330756;28;20232;-57
2023/06/02 10:59:34;;;;;;;6.03;4.73;;;;;;;;;;6321471;28;20200;-56
2023/06/02 11:02:42;;;;;;;6.73;4.80;;;;;;;;;;6350176;27;20196;-56
2023/06/02 11:05:43;;;;;;;6.00;4.60;;;;;;;;;;6345117;28;20190;-55
2023/06/02 11:08:45;;;;;;;5.47;4.97;;;;;;;;;;6324064;28;20207;-55
2023/06/02 11:11:50;;;;;;;4.80;4.40;;;;;;;;;;6321223;28;20189;-56
2023/06/02 11:15:01;;;;;;;5.10;4.70;;;;;;;;;;6315238;28;20228;-54
2023/06/02 11:18:22;;;;;;;5.37;4.57;;;;;;;;;;6339641;28;20187;-54
2023/06/02 11:21:23;;;;;;;8.30;5.17;;;;;;;;;;6333498;28;20188;-61
2023/06/02 11:24:24;;;;;;;4.73;4.23;;;;;;;;;;6318770;28;20282;-57
2023/06/02 11:27:48;;;;;;;7.17;4.57;;;;;;;;;;6331826;28;20187;-63
2023/06/02 11:31:04;;;;;;;5.30;3.97;;;;;;;;;;6350355;28;20255;-63
2023/06/02 11:34:15;;;;;;;4.93;4.37;;;;;;;;;;6364683;28;20180;-63
2023/06/02 11:37:20;;;;;;;4.60;4.20;;;;;;;;;;6333377;28;20245;-62
2023/06/02 11:40:21;;;;;;;5.37;4.83;;;;;;;;;;6326388;28;20192;-62
2023/06/02 11:43:22;;;;;;;5.17;4.77;;;;;;;;;;6331882;28;20194;-62
2023/06/02 11:46:23;;;;;;;5.17;4.57;;;;;;;;;;6314098;28;20257;-58
2023/06/02 11:49:35;;;;;;;5.43;4.90;;;;;;;;;;6320577;28;20366;-58
2023/06/02 11:52:36;;;;;;;5.27;4.30;;;;;;;;;;6341413;28;20188;-59
2023/06/02 11:55:37;;;;;;;7.33;4.07;;;;;;;;;;6329263;28;20230;-58
2023/06/02 11:58:42;;;;;;;5.33;4.23;;;;;;;;;;6323355;28;20206;-58
2023/06/02 12:01:44;;;;;;;5.33;3.83;;;;;;;;;;6306994;28;20197;-58
2023/06/02 12:04:45;;;;;;;3.87;3.53;;;;;;;;;;6318151;28;20192;-55
2023/06/02 12:07:46;;;;;;;5.27;4.60;;;;;;;;;;6302369;28;20192;-57
2023/06/02 12:10:47;;;;;;;5.13;4.63;;;;;;;;;;6305224;28;20220;-51
2023/06/02 12:13:58;;;;;;;5.10;3.97;;;;;;;;;;6303724;28;20209;-59
2023/06/02 12:17:04;;;;;;;4.07;3.67;;;;;;;;;;6327965;28;20189;-59
2023/06/02 12:20:05;;;;;;;4.03;3.40;;;;;;;;;;6332174;28;20249;-59
2023/06/02 12:23:10;;;;;;;3.78;3.42;;;;;;;;;;6317901;28;20324;-60
2023/06/02 12:26:11;;;;;;;3.72;3.42;;;;;;;;;;6344169;27;20183;-60
2023/06/02 12:29:16;;;;;;;4.07;3.63;;;;;;;;;;6345019;27;20219;-59
2023/06/02 12:32:25;;;;;;;3.78;3.53;;;;;;;;;;6338981;28;20184;-61
2023/06/02 12:35:26;;;;;;;4.90;3.75;;;;;;;;;;6337745;28;20180;-61
2023/06/02 12:38:27;;;;;;;4.25;3.95;;;;;;;;;;6331447;27;20187;-62
2023/06/02 12:41:28;;;;;;;6.22;4.18;;;;;;;;;;6314967;28;20184;-59
2023/06/02 12:44:29;;;;;;;4.78;3.72;;;;;;;;;;6332977;27;20225;-63
2023/06/02 12:47:30;;;;;;;4.32;3.92;;;;;;;;;;6343021;27;20196;-61
2023/06/02 12:50:32;;;;;;;4.05;3.65;;;;;;;;;;6327041;27;20191;-57
2023/06/02 12:53:33;;;;;;;4.65;3.97;;;;;;;;;;6322634;27;20292;-57
2023/06/02 12:56:34;;;;;;;4.03;3.60;;;;;;;;;;6333289;27;20192;-56
2023/06/02 12:59:35;;;;;;;4.35;4.03;;;;;;;;;;6344780;27;20202;-56
2023/06/02 13:02:37;;;;;;;4.25;3.85;;;;;;;;;;6353275;27;20209;-56
2023/06/02 13:05:38;;;;;;;4.40;4.03;;;;;;;;;;6341520;27;20183;-55
2023/06/02 13:08:40;;;;;;;5.10;3.75;;;;;;;;;;6354621;27;20187;-56
2023/06/02 13:11:42;;;;;;;3.95;3.50;;;;;;;;;;6349168;27;20255;-57
2023/06/02 13:14:43;;;;;;;4.07;3.65;;;;;;;;;;6350207;27;20195;-57
2023/06/02 13:17:44;;;;;;;3.90;3.60;;;;;;;;;;6343446;27;20240;-57
2023/06/02 13:20:46;;;;;;;4.22;3.83;;;;;;;;;;6343459;27;20215;-57
2023/06/02 13:23:54;;;;;;;3.97;3.67;;;;;;;;;;6340933;28;20194;-57
2023/06/02 13:26:55;;;;;;;4.07;3.75;;;;;;;;;;6346915;27;20275;-57
2023/06/02 13:29:57;;;;;;;4.85;3.60;;;;;;;;;;6326325;27;20253;-57
2023/06/02 13:32:58;;;;;;;4.03;3.60;;;;;;;;;;6329377;27;20183;-57
2023/06/02 13:35:59;;;;;;;3.95;3.63;;;;;;;;;;6328358;27;20264;-57
2023/06/02 13:39:00;;;;;;;3.47;3.15;;;;;;;;;;6346275;27;20222;-57
2023/06/02 13:42:01;;;;;;;3.78;3.40;;;;;;;;;;6355421;27;20181;-57
2023/06/02 13:45:02;;;;;;;3.90;3.47;;;;;;;;;;6348262;27;20210;-57
2023/06/02 13:48:06;;;;;;;4.65;3.22;;;;;;;;;;6333636;27;20207;-57
2023/06/02 13:51:07;;;;;;;3.58;3.28;;;;;;;;;;6339450;28;20209;-57
2023/06/02 13:54:09;;;;;;;3.88;3.58;;;;;;;;;;6328683;27;20190;-57
2023/06/02 13:57:10;;;;;;;4.18;3.88;;;35.70;33.00;;;;;;6333069;27;20312;-57
2023/06/02 14:00:11;;;;;;;6.03;3.70;;;;;;;;;;6328550;27;20214;-57
2023/06/02 14:03:12;;;;;;;4.60;4.05;;;;;;;;;;6327028;27;20191;-57
2023/06/02 14:06:13;;;;;;;4.53;4.13;;;;;;;;;;6339239;27;20187;-57
2023/06/02 14:09:15;;;;;;;4.83;3.70;;;;;;;;;;6329535;27;20224;-57
2023/06/02 14:12:16;;;;;;;4.37;4.03;;;;;;;;;;6330864;27;20243;-57
2023/06/02 14:15:17;;;;;;;4.57;4.17;;;;;;;;;;6340372;27;20269;-57
2023/06/02 14:18:18;;;;;;;4.43;4.03;;;;;;;;;;6318926;28;20183;-57
2023/06/02 14:21:19;;;;;;;5.03;3.53;;;;;;;;;;6333891;28;20247;-57
2023/06/02 14:24:20;;;;;;;4.30;3.33;;;;;;;;;;6335925;27;20183;-57
2023/06/02 14:27:21;;;;;;;4.83;3.27;;;;;;;;;;6341047;28;20187;-57
2023/06/02 14:30:24;;;;;;;3.20;3.00;;;;;;;;;;6314751;28;20246;-57
2023/06/02 14:33:25;;;;;;;3.40;3.10;;;;;;;;;;6360364;27;20193;-57
2023/06/02 14:36:26;;;;;;;3.33;3.03;;;;;;;;;;6327815;27;20215;-57
2023/06/02 14:39:27;;;;;;;3.30;3.00;;;;;;;;;;6320663;27;20243;-57
2023/06/02 14:42:28;;;;;;;3.60;3.30;;;;;;;;;;6317824;28;20198;-57
2023/06/02 14:45:29;;;;;;;4.07;3.67;;;;;;;;;;6340521;27;20187;-58
2023/06/02 14:48:30;;;;;;;3.53;3.23;;;;;;;;;;6321508;27;20203;-58
2023/06/02 14:51:31;;;;;;;3.30;3.00;;;;;;;;;;6334646;27;20326;-56
2023/06/02 14:54:32;;;;;;;4.37;3.33;;;;;;;;;;6325035;28;20197;-57
2023/06/02 14:57:34;;;;;;;3.60;3.30;;;;;;;;;;6339616;27;20192;-57
2023/06/02 15:00:35;;;;;;;4.33;3.57;;;;;;;;;;6323189;27;20310;-57
2023/06/02 15:03:37;;;;;;;3.73;3.40;;;;;;;;;;6335907;27;20191;-56
2023/06/02 15:06:38;;;;;;;3.57;3.27;;;;;;;;;;6321519;28;20195;-57
2023/06/02 15:09:39;;;;;;;4.73;4.07;;;;;;;;;;6334631;28;20183;-57
2023/06/02 15:12:40;;;;;;;3.90;3.60;;;;;;;;;;6330652;27;20190;-58
2023/06/02 15:15:41;;;;;;;4.50;4.10;;;;;;;;;;6336486;28;20292;-57
2023/06/02 15:18:42;;;;;;;5.60;3.73;;;;;;;;;;6328307;28;20207;-57
2023/06/02 15:21:43;;;;;;;4.47;4.00;;;;;;;;;;6344085;27;20190;-58
2023/06/02 15:24:44;;;;;;;3.77;3.47;;;;;;;;;;6321037;28;20191;-56
2023/06/02 15:27:45;;;;;;;6.03;3.70;;;;;;;;;;6316965;27;20192;-56
2023/06/02 15:30:47;;;;;;;5.37;3.80;;;;;;;;;;6317531;28;20321;-57
2023/06/02 15:33:48;;;;;;;5.53;3.60;;;;;;;;;;6326509;28;20187;-57
2023/06/02 15:36:49;;;;;;;3.93;3.60;;;;;;;;;;6335267;28;20186;-57
2023/06/02 15:39:50;;;;;;;3.77;3.47;;;;;;;;;;6332061;27;20288;-57
2023/06/02 15:42:51;;;;;;;4.53;3.57;;;;;;;;;;6338541;28;20187;-55
2023/06/02 15:45:52;;;;;;;3.60;3.30;;;;;;;;;;6334559;27;20206;-56
2023/06/02 15:48:53;;;;;;;5.13;3.33;;;;;;;;;;6323323;27;20195;-57
2023/06/02 15:51:55;;;;;;;5.50;3.50;;;;;;;;;;6325240;27;20196;-57
2023/06/02 15:54:56;;;;;;;3.90;3.50;;;;;;;;;;6345052;27;20202;-57
2023/06/02 15:57:57;;;;;;;4.37;3.80;;;;;;;;;;6347438;28;20201;-56
2023/06/02 16:00:58;;;;;;;3.60;3.17;;;;;;;;;;6324274;28;20227;-56
2023/06/02 16:03:59;;;;;;;2.97;2.73;;;;;;;;;;6328052;27;20198;-54
2023/06/02 16:07:01;;;;;;;3.60;3.30;;;;;;;;;;6322972;27;20210;-58
2023/06/02 16:10:02;;;;;;;3.50;3.20;;;;;;;;;;6322179;28;20252;-57
2023/06/02 16:13:03;;;;;;;4.40;3.20;;;;;;;;;;6352174;27;20250;-58
2023/06/02 16:16:04;;;;;;;4.77;3.50;;;;;;;;;;6325588;27;20217;-58
2023/06/02 16:19:05;;;;;;;3.40;3.10;;;;;;;;;;6348510;27;20258;-58
2023/06/02 16:22:06;;;;;;;4.70;3.30;;;;;;;;;;6336834;27;20187;-58
2023/06/02 16:25:08;;;;;;;3.40;3.13;;;;;;;;;;6337583;28;20191;-58
2023/06/02 16:28:09;;;;;;;3.33;3.03;;;;;;;;;;6322139;27;20215;-58
2023/06/02 16:31:10;;;;;;;3.40;3.10;;;;;;;;;;6349893;27;20227;-58
2023/06/02 16:34:11;;;;;;;3.27;2.97;;;;;;;;;;6326721;28;20298;-58
2023/06/02 16:37:12;;;;;;;3.77;3.47;;;;;;;;;;6321993;27;20218;-58
2023/06/02 16:40:14;;;;;;;4.40;2.93;;;;;;;;;;6326127;27;20211;-58